Time;durP1;ratioP1;P1;durP2;ratioP2;P2;SDS_P1;SDS_P2;PMS_P1;PMS_P2;Temp;Humidity;BMP_temperature;BMP_pressure;BME280_temperature;BME280_humidity;BME280_pressure;Samples;Min_cycle;Max_cycle;Signal;HPM_P1;HPM_P2
2022/05/21 00:00:35;;;;;;;6.28;5.78;;;18.20;99.90;;;;;;5075476;28;20581;-73
2022/05/21 00:03:01;;;;;;;8.50;6.18;;;18.20;99.90;;;;;;5075147;28;20250;-73
2022/05/21 00:05:29;;;;;;;5.85;5.07;;;18.20;99.90;;;;;;5075403;28;20201;-73
2022/05/21 00:07:55;;;;;;;7.53;6.25;;;18.10;99.90;;;;;;5075642;28;20192;-73
2022/05/21 00:10:22;;;;;;;5.55;4.63;;;18.20;99.90;;;;;;5075094;28;20218;-78
2022/05/21 00:12:48;;;;;;;3.90;3.55;;;18.10;99.90;;;;;;5075546;28;20327;-73
2022/05/21 00:15:18;;;;;;;8.20;6.00;;;18.20;99.90;;;;;;5075951;28;20197;-74
2022/05/21 00:17:43;;;;;;;7.50;5.47;;;18.20;99.90;;;;;;5075715;28;20266;-73
2022/05/21 00:20:47;;;;;;;5.63;5.18;;;18.10;99.90;;;;;;5075542;28;20254;-74
2022/05/21 00:22:57;;;;;;;5.78;5.00;;;18.10;99.90;;;;;;5074758;28;20172;-73
2022/05/21 00:25:23;;;;;;;7.18;4.07;;;18.10;99.90;;;;;;5075438;28;20179;-74
2022/05/21 00:27:49;;;;;;;5.88;4.97;;;18.10;99.90;;;;;;5090769;28;20567;-75
2022/05/21 00:30:17;;;;;;;6.47;5.03;;;18.00;99.90;;;;;;5090787;28;20270;-74
2022/05/21 00:32:42;;;;;;;5.18;4.78;;;18.00;99.90;;;;;;5074709;28;20234;-74
2022/05/21 00:35:09;;;;;;;5.55;4.88;;;17.90;99.90;;;;;;5074861;28;20190;-73
2022/05/21 00:37:35;;;;;;;4.53;3.95;;;18.00;99.90;;;;;;5074889;28;20163;-72
2022/05/21 00:40:00;;;;;;;7.05;5.10;;;17.90;99.90;;;;;;5075142;28;20228;-73
2022/05/21 00:42:26;;;;;;;5.43;4.95;;;17.80;99.90;;;;;;5074491;28;20191;-73
2022/05/21 00:44:51;;;;;;;7.10;5.63;;;17.80;99.90;;;;;;5074536;28;20466;-74
2022/05/21 00:47:17;;;;;;;4.93;4.43;;;17.90;99.90;;;;;;5074724;28;20254;-73
2022/05/21 00:49:44;;;;;;;5.60;5.05;;;17.80;99.90;;;;;;5074793;28;20651;-73
2022/05/21 00:52:22;;;;;;;5.53;4.25;;;17.80;99.90;;;;;;5073982;28;20226;-74
2022/05/21 00:54:51;;;;;;;5.93;4.40;;;17.80;99.90;;;;;;5074484;28;20206;-74
2022/05/21 00:57:23;;;;;;;4.80;4.40;;;17.70;99.90;;;;;;5074517;28;20249;-74
2022/05/21 00:59:54;;;;;;;4.68;3.65;;;17.70;99.90;;;;;;5074348;28;20195;-74
2022/05/21 01:02:39;;;;;;;4.13;3.53;;;17.70;99.90;;;;;;5074094;28;20174;-74
2022/05/21 01:05:11;;;;;;;8.63;4.03;;;17.70;99.90;;;;;;5074676;28;20171;-73
2022/05/21 01:07:41;;;;;;;3.70;3.30;;;17.70;99.90;;;;;;5074256;28;20254;-74
2022/05/21 01:10:08;;;;;;;3.75;3.13;;;17.70;99.90;;;;;;5095653;28;20187;-74
2022/05/21 01:12:38;;;;;;;3.85;2.72;;;17.60;99.90;;;;;;5110832;28;20254;-72
2022/05/21 01:15:09;;;;;;;4.97;3.30;;;17.50;99.90;;;;;;5114723;28;20629;-72
2022/05/21 01:17:35;;;;;;;3.80;3.40;;;17.50;99.90;;;;;;5109208;28;20640;-72
2022/05/21 01:20:05;;;;;;;3.97;3.67;;;17.50;99.90;;;;;;5073972;28;20171;-73
2022/05/21 01:22:39;;;;;;;6.55;3.50;;;17.50;99.90;;;;;;5073924;28;20210;-72
2022/05/21 01:25:06;;;;;;;5.88;3.65;;;17.60;99.90;;;;;;5111571;28;20178;-73
2022/05/21 01:27:32;;;;;;;4.72;3.50;;;17.60;99.90;;;;;;5095664;28;20703;-74
2022/05/21 01:30:00;;;;;;;5.88;2.97;;;17.60;99.90;;;;;;5093572;28;20178;-74
2022/05/21 01:32:28;;;;;;;3.70;3.38;;;17.60;99.90;;;;;;5092437;28;20202;-73
2022/05/21 01:34:54;;;;;;;5.03;3.53;;;17.60;99.90;;;;;;5088684;28;20727;-73
2022/05/21 01:37:20;;;;;;;5.47;3.45;;;17.50;99.90;;;;;;5073825;28;20171;-73
2022/05/21 01:39:45;;;;;;;5.55;3.58;;;17.50;99.90;;;;;;5073352;28;20260;-72
2022/05/21 01:42:11;;;;;;;4.88;3.40;;;17.40;99.90;;;;;;5073101;28;20190;-73
2022/05/21 01:44:40;;;;;;;3.42;3.15;;;17.40;99.90;;;;;;5073629;28;20172;-73
2022/05/21 01:47:10;;;;;;;4.68;2.92;;;17.40;99.90;;;;;;5073489;28;20177;-73
2022/05/21 01:49:37;;;;;;;3.35;3.08;;;17.50;99.90;;;;;;5073414;28;20195;-75
2022/05/21 01:52:04;;;;;;;4.07;3.20;;;17.50;99.90;;;;;;5073306;28;20226;-73
2022/05/21 01:54:32;;;;;;;3.83;2.90;;;17.40;99.90;;;;;;5073494;28;20178;-73
2022/05/21 01:56:58;;;;;;;3.25;2.90;;;17.40;99.90;;;;;;5099404;28;20182;-74
2022/05/21 01:59:24;;;;;;;3.33;3.10;;;17.40;99.90;;;;;;5101464;28;20198;-74
2022/05/21 02:01:50;;;;;;;3.33;3.13;;;17.40;99.90;;;;;;5073267;28;20171;-73
2022/05/21 02:04:16;;;;;;;3.80;2.80;;;17.30;99.90;;;;;;5073165;28;20167;-73
2022/05/21 02:06:42;;;;;;;3.83;3.45;;;17.30;99.90;;;;;;5073278;28;20183;-73
2022/05/21 02:09:08;;;;;;;3.05;2.80;;;17.30;99.90;;;;;;5073279;28;20224;-73
2022/05/21 02:11:35;;;;;;;4.75;3.45;;;17.20;99.90;;;;;;5073027;28;20249;-72
2022/05/21 02:14:00;;;;;;;4.25;3.22;;;17.20;99.90;;;;;;5073007;28;20175;-72
2022/05/21 02:16:26;;;;;;;3.92;2.92;;;17.40;99.90;;;;;;5073381;28;20232;-75
2022/05/21 02:18:51;;;;;;;4.18;3.15;;;17.40;99.90;;;;;;5072939;28;20203;-73
2022/05/21 02:21:18;;;;;;;3.97;3.58;;;17.30;99.90;;;;;;5072983;28;20182;-74
2022/05/21 02:23:44;;;;;;;2.85;2.65;;;17.30;99.90;;;;;;5072535;28;20638;-74
2022/05/21 02:26:10;;;;;;;4.28;3.00;;;17.20;99.90;;;;;;5072783;28;20202;-73
2022/05/21 02:28:35;;;;;;;3.88;2.75;;;17.20;99.90;;;;;;5072679;28;20689;-73
2022/05/21 02:31:02;;;;;;;2.97;2.65;;;17.20;99.90;;;;;;5073180;28;20195;-74
2022/05/21 02:33:27;;;;;;;4.97;2.80;;;17.10;99.90;;;;;;5072753;28;20171;-74
2022/05/21 02:35:53;;;;;;;3.85;2.85;;;17.10;99.90;;;;;;5072890;28;20167;-74
2022/05/21 02:41:12;;;;;;;4.50;3.22;;;17.10;99.90;;;;;;5073269;28;20177;-72
2022/05/21 02:43:39;;;;;;;2.85;2.63;;;17.00;99.90;;;;;;5072869;28;20198;-72
2022/05/21 02:46:05;;;;;;;4.82;2.97;;;17.00;99.90;;;;;;5072755;28;20193;-74
2022/05/21 02:48:31;;;;;;;3.15;2.90;;;17.00;99.90;;;;;;5072763;28;20202;-74
2022/05/21 02:50:57;;;;;;;3.03;2.75;;;16.90;99.90;;;;;;5072962;28;20178;-74
2022/05/21 02:53:23;;;;;;;2.63;2.42;;;16.90;99.90;;;;;;5072692;28;20175;-74
2022/05/21 02:55:51;;;;;;;3.05;2.85;;;16.90;99.90;;;;;;5072672;28;20537;-74
2022/05/21 02:58:17;;;;;;;3.85;2.70;;;16.80;99.90;;;;;;5072421;28;20202;-74
2022/05/21 03:00:44;;;;;;;2.80;2.60;;;16.90;99.90;;;;;;5072642;28;20171;-74
2022/05/21 03:03:10;;;;;;;2.70;2.50;;;16.80;99.90;;;;;;5072277;28;20172;-74
2022/05/21 03:05:35;;;;;;;2.92;2.72;;;16.70;99.90;;;;;;5072455;28;20183;-73
2022/05/21 03:10:20;;;;;;;3.67;2.92;;;16.70;99.90;;;;;;5072416;28;20189;-72
2022/05/21 03:10:50;;;;;;;2.60;2.40;;;16.60;99.90;;;;;;5072517;28;20629;-73
2022/05/21 03:13:16;;;;;;;3.08;2.78;;;16.60;99.90;;;;;;5071870;28;20189;-72
2022/05/21 03:15:42;;;;;;;3.35;2.30;;;16.60;99.90;;;;;;5072253;28;20167;-73
2022/05/21 03:18:11;;;;;;;2.83;2.60;;;16.50;99.90;;;;;;5072514;28;20252;-72
2022/05/21 03:20:37;;;;;;;2.83;2.38;;;16.50;99.90;;;;;;5072420;28;20163;-72
2022/05/21 03:23:03;;;;;;;2.42;2.28;;;16.50;99.90;;;;;;5071954;28;20187;-72
2022/05/21 03:25:29;;;;;;;2.33;2.22;;;16.40;99.90;;;;;;5072379;28;20215;-72
2022/05/21 03:27:55;;;;;;;2.40;2.28;;;16.40;99.90;;;;;;5071975;28;20221;-74
2022/05/21 03:30:24;;;;;;;2.40;2.20;;;16.40;99.90;;;;;;5072054;28;20730;-74
2022/05/21 03:32:50;;;;;;;3.50;3.10;;;16.40;99.90;;;;;;5075123;28;20213;-73
2022/05/21 03:35:19;;;;;;;3.05;2.35;;;16.40;99.90;;;;;;5076979;28;20539;-73
2022/05/21 03:37:45;;;;;;;2.33;2.20;;;16.30;99.90;;;;;;5076140;28;20175;-74
2022/05/21 03:40:15;;;;;;;8.50;3.17;;;16.30;99.90;;;;;;5092134;28;20217;-75
2022/05/21 03:42:40;;;;;;;3.13;2.70;;;16.30;99.90;;;;;;5075874;28;20179;-75
2022/05/21 03:45:08;;;;;;;4.47;2.80;;;16.30;99.90;;;;;;5076182;28;20186;-72
2022/05/21 03:47:33;;;;;;;3.13;2.92;;;16.40;99.90;;;;;;5075798;28;20187;-72
2022/05/21 03:49:59;;;;;;;3.53;3.33;;;16.40;99.90;;;;;;5075861;28;20822;-74
2022/05/21 03:52:25;;;;;;;2.83;2.55;;;16.40;99.90;;;;;;5074455;28;20202;-75
2022/05/21 03:54:50;;;;;;;2.97;2.78;;;16.40;99.90;;;;;;5075789;28;20179;-74
2022/05/21 03:57:17;;;;;;;3.63;2.75;;;16.30;99.90;;;;;;5075792;28;20178;-74
2022/05/21 03:59:43;;;;;;;2.55;2.17;;;16.30;99.90;;;;;;5075763;28;20241;-74
2022/05/21 04:02:09;;;;;;;3.53;2.58;;;16.30;99.90;;;;;;5075744;28;20190;-74
2022/05/21 04:04:35;;;;;;;2.75;2.65;;;16.40;99.90;;;;;;5076221;28;20183;-73
2022/05/21 04:07:01;;;;;;;2.63;2.50;;;16.40;99.90;;;;;;5076021;28;20227;-73
2022/05/21 04:09:28;;;;;;;2.30;2.20;;;16.60;99.90;;;;;;5080935;28;20716;-73
2022/05/21 04:11:55;;;;;;;2.75;2.55;;;16.70;99.90;;;;;;5082702;28;20207;-74
2022/05/21 04:14:27;;;;;;;3.80;2.60;;;16.70;99.90;;;;;;5087265;28;20173;-73
2022/05/21 04:16:52;;;;;;;2.40;2.22;;;16.80;99.90;;;;;;5116048;28;20172;-74
2022/05/21 04:19:18;;;;;;;3.40;2.45;;;16.70;99.90;;;;;;5086233;28;20199;-73
2022/05/21 04:21:43;;;;;;;3.25;2.22;;;16.90;99.90;;;;;;5074772;28;20272;-74
2022/05/21 04:24:09;;;;;;;2.85;2.65;;;17.00;99.90;;;;;;5075505;28;20179;-74
2022/05/21 04:26:35;;;;;;;5.20;2.80;;;17.00;99.90;;;;;;5075484;28;20187;-73
2022/05/21 04:29:00;;;;;;;2.80;2.47;;;17.10;99.90;;;;;;5075054;28;20211;-74
2022/05/21 04:31:26;;;;;;;2.30;2.10;;;17.10;99.90;;;;;;5078445;28;20257;-72
2022/05/21 04:33:51;;;;;;;2.92;2.17;;;17.10;99.90;;;;;;5113777;28;20249;-72
2022/05/21 04:36:20;;;;;;;3.55;2.65;;;17.10;99.90;;;;;;5074878;28;20259;-74
2022/05/21 04:38:50;;;;;;;2.90;2.70;;;17.10;99.90;;;;;;5075322;28;20203;-75
2022/05/21 04:41:17;;;;;;;2.72;2.50;;;17.10;99.90;;;;;;5075177;28;20206;-73
2022/05/21 04:43:43;;;;;;;4.05;2.58;;;17.10;99.90;;;;;;5073461;28;20185;-74
2022/05/21 04:46:11;;;;;;;2.67;2.30;;;17.10;99.90;;;;;;5115351;28;20186;-74
2022/05/21 04:48:37;;;;;;;3.45;2.40;;;17.20;99.90;;;;;;5115727;28;20289;-73
2022/05/21 04:51:04;;;;;;;3.00;2.78;;;17.20;99.90;;;;;;5115111;28;20644;-72
2022/05/21 04:53:31;;;;;;;2.60;2.50;;;17.30;99.90;;;;;;5081415;28;20198;-74
2022/05/21 04:55:56;;;;;;;2.28;2.17;;;17.30;99.90;;;;;;5074826;28;20537;-72
2022/05/21 04:58:22;;;;;;;2.53;2.33;;;17.30;99.90;;;;;;5074933;28;20191;-75
2022/05/21 05:00:48;;;;;;;3.80;2.45;;;17.20;99.90;;;;;;5074873;28;20678;-74
2022/05/21 05:03:16;;;;;;;2.55;2.40;;;17.20;99.90;;;;;;5074478;28;20259;-73
2022/05/21 05:05:44;;;;;;;2.47;2.28;;;17.40;99.90;;;;;;5074499;28;20194;-75
2022/05/21 05:08:10;;;;;;;3.42;3.20;;;17.40;99.90;;;;;;5074061;28;20267;-74
2022/05/21 05:10:36;;;;;;;2.42;2.28;;;17.40;99.90;;;;;;5074572;28;20220;-74
2022/05/21 05:13:06;;;;;;;2.92;2.60;;;17.50;99.90;;;;;;5074405;28;20562;-74
2022/05/21 05:15:33;;;;;;;3.75;2.70;;;17.40;99.90;;;;;;5074358;28;20168;-75
2022/05/21 05:18:04;;;;;;;3.03;2.83;;;17.30;99.90;;;;;;5074398;28;20199;-74
2022/05/21 05:20:29;;;;;;;2.88;2.67;;;17.30;99.90;;;;;;5074506;28;20182;-73
2022/05/21 05:22:55;;;;;;;2.70;2.50;;;17.30;99.90;;;;;;5074458;28;20173;-73
2022/05/21 05:25:21;;;;;;;3.85;2.83;;;17.30;99.90;;;;;;5073975;28;20187;-74
2022/05/21 05:27:48;;;;;;;2.67;2.47;;;17.20;99.90;;;;;;5074061;28;20538;-74
2022/05/21 05:30:15;;;;;;;2.85;2.65;;;17.20;99.90;;;;;;5074299;28;20175;-75
2022/05/21 05:32:41;;;;;;;2.72;2.63;;;17.30;99.90;;;;;;5074033;28;20669;-74
2022/05/21 05:35:07;;;;;;;13.55;2.50;;;17.30;99.90;;;;;;5074314;28;20199;-73
2022/05/21 05:37:33;;;;;;;6.22;2.72;;;17.20;99.90;;;;;;5073739;28;20194;-75
2022/05/21 05:39:59;;;;;;;2.85;2.50;;;17.10;99.90;;;;;;5073949;28;20585;-73
2022/05/21 05:42:25;;;;;;;2.58;2.38;;;17.10;99.90;;;;;;5073817;28;20171;-74
2022/05/21 05:44:50;;;;;;;4.25;2.78;;;17.10;99.90;;;;;;5072958;28;20174;-74
2022/05/21 05:47:16;;;;;;;4.38;2.63;;;17.10;99.90;;;;;;5073973;28;20219;-74
2022/05/21 05:49:41;;;;;;;2.22;2.05;;;16.90;99.90;;;;;;5073679;28;20233;-73
2022/05/21 05:52:08;;;;;;;3.22;2.80;;;16.80;99.90;;;;;;5073638;28;20242;-74
2022/05/21 05:54:35;;;;;;;2.50;2.38;;;16.70;99.90;;;;;;5073721;28;20187;-75
2022/05/21 05:57:00;;;;;;;2.45;2.35;;;16.80;99.90;;;;;;5073662;28;20174;-72
2022/05/21 06:04:55;;;;;;;2.90;2.42;;;17.00;99.90;;;;;;5073348;28;20244;-75
2022/05/21 06:07:22;;;;;;;2.70;2.10;;;16.90;99.90;;;;;;5073766;28;20170;-73
2022/05/21 06:09:49;;;;;;;2.85;2.65;;;16.80;99.90;;;;;;5073535;28;20278;-74
2022/05/21 06:12:15;;;;;;;3.10;2.45;;;16.80;99.90;;;;;;5072896;28;20240;-73
2022/05/21 06:14:41;;;;;;;3.22;2.75;;;16.80;99.90;;;;;;5073462;28;20232;-73
2022/05/21 06:17:09;;;;;;;2.53;2.33;;;17.00;99.90;;;;;;5073357;28;20171;-73
2022/05/21 06:19:35;;;;;;;2.50;2.25;;;17.20;99.90;;;;;;5084312;28;20288;-74
2022/05/21 06:22:02;;;;;;;2.55;2.35;;;17.60;99.90;;;;;;5094542;28;20273;-75
2022/05/21 06:24:29;;;;;;;2.38;2.15;;;17.70;99.90;;;;;;5073253;28;20179;-73
2022/05/21 06:26:54;;;;;;;2.38;2.17;;;17.80;99.90;;;;;;5073248;28;20679;-75
2022/05/21 06:29:20;;;;;;;2.83;2.10;;;17.90;99.90;;;;;;5072841;28;20207;-73
2022/05/21 06:31:46;;;;;;;2.25;2.15;;;18.30;99.90;;;;;;5072149;28;20211;-73
2022/05/21 06:34:13;;;;;;;2.17;2.08;;;18.50;99.90;;;;;;5104247;28;20254;-73
2022/05/21 06:36:38;;;;;;;2.38;2.28;;;18.60;99.90;;;;;;5111762;28;20177;-73
2022/05/21 06:39:04;;;;;;;4.53;2.50;;;19.10;99.90;;;;;;5112535;28;20194;-72
2022/05/21 06:41:31;;;;;;;2.72;2.13;;;19.20;99.90;;;;;;5097974;28;20681;-73
2022/05/21 06:43:57;;;;;;;2.05;1.95;;;19.40;99.90;;;;;;5092531;28;20572;-75
2022/05/21 06:46:23;;;;;;;2.35;2.25;;;19.50;99.90;;;;;;5092813;28;20182;-76
2022/05/21 06:48:48;;;;;;;1.77;1.67;;;19.60;99.90;;;;;;5092818;28;20571;-75
2022/05/21 06:51:15;;;;;;;1.95;1.85;;;19.60;99.90;;;;;;5073308;28;20241;-75
2022/05/21 06:53:40;;;;;;;3.72;1.90;;;19.60;99.90;;;;;;5072197;28;20175;-73
2022/05/21 06:56:12;;;;;;;1.98;1.58;;;19.80;99.90;;;;;;5072400;28;20175;-72
2022/05/21 06:58:38;;;;;;;1.75;1.67;;;20.00;99.90;;;;;;5072264;28;20781;-76
2022/05/21 07:01:05;;;;;;;1.70;1.60;;;20.10;99.90;;;;;;5072377;28;20164;-75
2022/05/21 07:03:30;;;;;;;1.52;1.50;;;20.00;99.90;;;;;;5071988;28;20172;-74
2022/05/21 07:08:41;;;;;;;1.58;1.55;;;19.40;99.90;;;;;;5072716;28;20202;-75
2022/05/21 07:11:06;;;;;;;1.55;1.45;;;18.90;99.90;;;;;;5072288;28;20547;-75
2022/05/21 07:13:32;;;;;;;1.85;1.70;;;18.70;99.90;;;;;;5071768;28;20187;-74
2022/05/21 07:15:59;;;;;;;1.98;1.60;;;18.50;99.90;;;;;;5088109;28;20171;-74
2022/05/21 07:18:29;;;;;;;2.45;1.60;;;18.60;99.90;;;;;;5072168;28;20244;-75
2022/05/21 07:20:55;;;;;;;1.50;1.50;;;18.60;99.90;;;;;;5072455;28;20187;-74
2022/05/21 07:23:24;;;;;;;2.08;1.75;;;18.70;99.90;;;;;;5072033;28;20193;-75
2022/05/21 07:25:49;;;;;;;1.85;1.70;;;18.80;99.90;;;;;;5072308;28;20532;-73
2022/05/21 07:28:16;;;;;;;1.50;1.48;;;19.10;99.90;;;;;;5071990;28;20207;-73
2022/05/21 07:30:44;;;;;;;1.73;1.70;;;19.40;99.90;;;;;;5072113;28;20187;-73
2022/05/21 07:33:19;;;;;;;1.58;1.58;;;19.70;99.90;;;;;;5071878;28;20207;-73
2022/05/21 07:35:45;;;;;;;2.10;1.90;;;20.00;99.90;;;;;;5072183;28;20175;-73
2022/05/21 07:38:12;;;;;;;1.60;1.50;;;20.30;99.90;;;;;;5072144;28;20183;-75
2022/05/21 07:40:39;;;;;;;1.70;1.60;;;20.40;99.90;;;;;;5072046;28;20190;-75
2022/05/21 07:43:18;;;;;;;1.63;1.52;;;20.60;99.90;;;;;;5070598;28;20179;-75
2022/05/21 07:45:45;;;;;;;1.83;1.70;;;20.60;99.90;;;;;;5071932;28;20163;-74
2022/05/21 07:48:13;;;;;;;1.52;1.42;;;20.60;99.90;;;;;;5071750;28;20681;-76
2022/05/21 07:50:40;;;;;;;1.55;1.45;;;20.40;99.90;;;;;;5072148;28;20553;-73
2022/05/21 07:53:14;;;;;;;1.58;1.48;;;20.70;99.90;;;;;;5071636;28;20230;-73
2022/05/21 07:55:45;;;;;;;1.23;1.23;;;20.90;99.90;;;;;;5071980;28;20718;-75
2022/05/21 07:58:11;;;;;;;2.92;1.65;;;20.80;99.90;;;;;;5071656;28;20241;-74
2022/05/21 08:00:37;;;;;;;1.73;1.20;;;20.40;99.90;;;;;;5078955;28;20223;-75
2022/05/21 08:03:03;;;;;;;2.33;1.17;;;20.10;99.90;;;;;;5111883;28;20637;-76
2022/05/21 08:05:29;;;;;;;1.00;1.00;;;19.90;99.90;;;;;;5089335;28;20191;-73
2022/05/21 08:07:55;;;;;;;2.70;1.60;;;19.70;99.90;;;;;;5071742;28;20700;-73
2022/05/21 08:10:22;;;;;;;1.05;1.05;;;19.50;99.90;;;;;;5071931;28;20167;-73
2022/05/21 08:12:49;;;;;;;1.35;1.10;;;19.50;99.90;;;;;;5071504;28;20202;-75
2022/05/21 08:15:16;;;;;;;1.10;1.10;;;19.50;99.90;;;;;;5071633;28;20222;-75
2022/05/21 08:17:42;;;;;;;1.50;1.10;;;19.50;99.90;;;;;;5088164;28;20171;-75
2022/05/21 08:20:11;;;;;;;3.20;1.20;;;19.70;99.90;;;;;;5075210;28;20520;-73
2022/05/21 08:28:05;;;;;;;1.40;1.38;;;20.30;99.90;;;;;;5074952;28;20233;-73
2022/05/21 08:30:31;;;;;;;1.30;1.20;;;20.50;99.90;;;;;;5075077;28;20179;-75
2022/05/21 08:33:04;;;;;;;2.47;1.55;;;20.90;99.90;;;;;;5074714;28;20195;-76
2022/05/21 08:35:31;;;;;;;2.10;1.90;;;21.30;99.90;;;;;;5075047;28;20228;-75
2022/05/21 08:37:57;;;;;;;1.30;1.25;;;21.60;99.90;;;;;;5074643;28;20215;-75
2022/05/21 08:40:35;;;;;;;1.20;1.00;;;21.60;99.90;;;;;;5074821;28;20222;-75
2022/05/21 08:43:03;;;;;;;1.10;1.10;;;21.70;99.90;;;;;;5074520;28;20263;-74
2022/05/21 08:46:01;;;;;;;0.95;0.95;;;21.70;99.90;;;;;;5074904;28;20198;-74
2022/05/21 08:48:31;;;;;;;1.15;0.80;;;21.70;99.90;;;;;;5072682;28;20221;-73
2022/05/21 08:50:58;;;;;;;1.20;1.02;;;22.00;99.90;;;;;;5074623;28;20198;-73
2022/05/21 08:53:27;;;;;;;1.20;1.20;;;22.20;99.90;;;;;;5089978;28;20522;-75
2022/05/21 08:55:56;;;;;;;1.52;1.00;;;22.30;99.90;;;;;;5074132;28;20385;-74
2022/05/21 08:58:50;;;;;;;1.10;1.10;;;22.50;98.00;;;;;;5074612;28;20681;-75
2022/05/21 09:01:20;;;;;;;1.15;1.15;;;22.70;98.30;;;;;;5074413;28;20186;-74
2022/05/21 09:03:47;;;;;;;1.25;1.23;;;22.60;97.10;;;;;;5074060;28;20277;-73
2022/05/21 09:06:40;;;;;;;1.05;0.90;;;22.20;99.70;;;;;;5074525;28;20172;-73
2022/05/21 09:09:09;;;;;;;1.00;1.00;;;21.90;97.90;;;;;;5074573;28;20195;-75
2022/05/21 09:11:46;;;;;;;1.40;1.30;;;21.40;98.20;;;;;;5074240;28;20213;-74
2022/05/21 09:14:15;;;;;;;1.13;1.13;;;21.40;99.90;;;;;;5074286;28;20189;-74
2022/05/21 09:16:54;;;;;;;2.10;1.25;;;21.50;99.80;;;;;;5074125;28;20180;-74
2022/05/21 09:19:23;;;;;;;0.93;0.93;;;21.70;98.70;;;;;;5073835;28;20195;-75
2022/05/21 09:21:56;;;;;;;2.20;1.05;;;22.20;99.90;;;;;;5073436;28;20219;-74
2022/05/21 09:24:38;;;;;;;1.08;1.02;;;22.60;96.40;;;;;;5074250;28;20175;-73
2022/05/21 09:27:19;;;;;;;1.48;1.20;;;22.70;95.60;;;;;;5073926;28;20171;-75
2022/05/21 09:29:45;;;;;;;1.25;1.15;;;23.20;97.00;;;;;;5072720;28;20550;-75
2022/05/21 09:32:33;;;;;;;0.82;0.82;;;23.20;94.40;;;;;;5073072;28;20214;-74
2022/05/21 09:35:11;;;;;;;0.90;0.90;;;23.00;95.30;;;;;;5073506;28;20168;-73
2022/05/21 09:37:38;;;;;;;1.30;0.80;;;24.20;92.00;;;;;;5073464;28;20668;-74
2022/05/21 09:40:22;;;;;;;0.77;0.77;;;26.60;88.40;;;;;;5073010;28;20190;-75
2022/05/21 09:45:36;;;;;;;0.93;0.93;;;29.00;69.60;;;;;;5073320;28;20185;-75
2022/05/21 09:48:05;;;;;;;1.95;1.10;;;30.40;59.40;;;;;;5072964;28;20195;-74
2022/05/21 09:50:42;;;;;;;1.00;1.00;;;29.50;58.70;;;;;;5072726;28;20175;-74
2022/05/21 09:53:19;;;;;;;1.70;0.80;;;29.40;58.40;;;;;;5072386;28;20210;-75
2022/05/21 09:55:57;;;;;;;2.58;0.85;;;30.90;58.60;;;;;;5072753;28;20194;-75
2022/05/21 09:58:22;;;;;;;0.82;0.82;;;32.70;51.60;;;;;;5092680;28;20213;-74
2022/05/21 10:00:54;;;;;;;0.60;0.60;;;33.20;52.50;;;;;;5091679;28;20645;-72
2022/05/21 10:03:35;;;;;;;2.75;1.10;;;33.80;51.40;;;;;;5092525;28;20178;-73
2022/05/21 10:06:04;;;;;;;0.60;0.60;;;34.20;48.60;;;;;;5080511;28;20179;-73
2022/05/21 10:11:25;;;;;;;2.22;1.10;;;34.00;46.70;;;;;;5072443;28;20276;-73
2022/05/21 10:14:22;;;;;;;0.60;0.60;;;32.90;47.30;;;;;;5072075;28;20167;-71
2022/05/21 10:17:02;;;;;;;0.73;0.73;;;32.40;48.10;;;;;;5071980;28;20191;-72
2022/05/21 10:19:54;;;;;;;0.60;0.55;;;32.10;48.20;;;;;;5072269;28;20191;-72
2022/05/21 10:22:19;;;;;;;0.70;0.70;;;33.00;48.70;;;;;;5071649;28;20183;-74
2022/05/21 10:25:01;;;;;;;1.23;1.08;;;34.30;46.10;;;;;;5072155;28;20179;-72
2022/05/21 10:27:27;;;;;;;0.90;0.90;;;35.40;45.00;;;;;;5072296;28;20195;-71
2022/05/21 10:30:06;;;;;;;0.85;0.70;;;34.50;44.00;;;;;;5072074;28;20187;-72
2022/05/21 10:32:49;;;;;;;1.30;0.70;;;34.50;44.40;;;;;;5071456;28;20199;-73
2022/05/21 10:35:30;;;;;;;1.58;1.13;;;34.60;46.20;;;;;;5072265;28;20655;-71
2022/05/21 10:38:06;;;;;;;1.63;0.80;;;34.50;45.00;;;;;;5071982;28;20191;-72
2022/05/21 10:40:42;;;;;;;1.13;0.70;;;34.10;44.90;;;;;;5071916;28;20182;-72
2022/05/21 10:43:49;;;;;;;0.45;0.30;;;34.00;43.50;;;;;;5071753;28;20177;-72
2022/05/21 10:46:35;;;;;;;1.10;0.77;;;34.40;43.30;;;;;;5071535;28;20240;-73
2022/05/21 10:49:33;;;;;;;0.82;0.82;;;35.10;41.80;;;;;;5060116;28;20678;-73
2022/05/21 10:52:02;;;;;;;1.10;0.60;;;35.10;42.20;;;;;;5062124;28;20263;-71
2022/05/21 10:54:34;;;;;;;2.42;0.75;;;35.00;41.40;;;;;;5071754;28;20165;-71
2022/05/21 10:57:44;;;;;;;0.70;0.70;;;34.80;42.70;;;;;;5071625;28;20193;-70
2022/05/21 11:00:23;;;;;;;1.83;0.68;;;34.90;40.90;;;;;;5071725;28;20207;-73
2022/05/21 11:03:04;;;;;;;2.10;0.95;;;34.30;41.70;;;;;;5071498;28;20606;-73
2022/05/21 11:05:33;;;;;;;1.20;0.55;;;33.60;43.40;;;;;;5071765;28;20205;-73
2022/05/21 11:08:13;;;;;;;0.60;0.60;;;33.90;42.60;;;;;;5071551;28;20273;-72
2022/05/21 11:11:08;;;;;;;1.77;0.50;;;34.70;41.30;;;;;;5071694;28;20583;-73
2022/05/21 11:13:38;;;;;;;0.77;0.77;;;35.20;41.10;;;;;;5081987;28;20205;-73
2022/05/21 11:16:06;;;;;;;0.38;0.38;;;35.50;40.10;;;;;;5071649;28;20167;-73
2022/05/21 11:18:41;;;;;;;2.03;0.80;;;35.50;40.10;;;;;;5071415;28;20220;-72
2022/05/21 11:21:23;;;;;;;0.88;0.80;;;35.50;39.80;;;;;;5071846;28;20583;-73
2022/05/21 11:24:18;;;;;;;0.55;0.55;;;35.50;41.00;;;;;;5071184;28;20178;-71
2022/05/21 11:26:59;;;;;;;0.75;0.70;;;35.00;42.60;;;;;;5071376;28;20178;-73
2022/05/21 11:29:43;;;;;;;0.70;0.63;;;34.80;40.60;;;;;;5070439;28;20611;-73
2022/05/21 11:37:55;;;;;;;1.98;0.80;;;35.70;41.00;;;;;;5071702;28;20190;-71
2022/05/21 11:41:24;;;;;;;1.27;0.60;;;35.80;39.70;;;;;;5071127;28;20183;-73
2022/05/21 11:44:55;;;;;;;0.82;0.65;;;35.60;39.40;;;;;;5066221;28;20192;-73
2022/05/21 11:46:50;;;;;;;2.97;1.17;;;34.80;40.20;;;;;;5071211;28;20550;-73
2022/05/21 11:49:44;;;;;;;0.88;0.70;;;34.10;39.80;;;;;;5071069;28;20600;-71
2022/05/21 11:52:31;;;;;;;0.93;0.93;;;33.40;42.70;;;;;;5051280;28;20237;-72
2022/05/21 11:54:56;;;;;;;1.00;0.75;;;32.90;43.20;;;;;;5075064;28;20169;-73
2022/05/21 11:57:31;;;;;;;1.45;0.75;;;33.00;42.40;;;;;;5075221;28;20708;-74
2022/05/21 11:59:57;;;;;;;0.70;0.70;;;33.20;44.10;;;;;;5074928;28;20213;-71
2022/05/21 12:02:25;;;;;;;0.93;0.60;;;33.40;43.00;;;;;;5074647;28;20182;-71
2022/05/21 12:05:00;;;;;;;0.75;0.75;;;34.00;40.60;;;;;;5074939;28;20416;-73
2022/05/21 12:07:41;;;;;;;1.05;0.90;;;33.60;42.10;;;;;;5074664;28;20637;-73
2022/05/21 12:10:12;;;;;;;0.80;0.80;;;33.60;42.10;;;;;;5090466;28;20174;-73
2022/05/21 12:13:12;;;;;;;0.63;0.63;;;32.80;42.10;;;;;;5074283;28;20277;-74
2022/05/21 12:16:05;;;;;;;1.77;1.05;;;33.30;41.60;;;;;;5074442;28;20591;-73
2022/05/21 12:18:41;;;;;;;1.75;0.50;;;33.60;41.20;;;;;;5064033;28;20260;-70
2022/05/21 12:21:13;;;;;;;1.80;0.80;;;33.00;42.00;;;;;;5074396;28;20198;-70
2022/05/21 12:23:41;;;;;;;3.75;0.70;;;33.40;40.70;;;;;;5074228;28;20687;-71
2022/05/21 12:26:20;;;;;;;1.85;0.75;;;34.10;40.90;;;;;;5074526;28;20181;-72
2022/05/21 12:28:55;;;;;;;1.75;0.77;;;34.80;40.10;;;;;;5074223;28;20216;-70
2022/05/21 12:31:32;;;;;;;0.75;0.75;;;34.60;41.20;;;;;;5073819;28;20206;-70
2022/05/21 12:34:23;;;;;;;0.70;0.70;;;35.10;39.00;;;;;;5073999;28;20171;-70
2022/05/21 12:37:01;;;;;;;1.33;0.50;;;35.80;38.30;;;;;;5074428;28;20166;-70
2022/05/21 12:39:53;;;;;;;2.05;0.70;;;36.20;37.50;;;;;;5073984;28;20194;-71
2022/05/21 12:42:32;;;;;;;1.48;0.55;;;37.30;37.20;;;;;;5073926;28;20171;-71
2022/05/21 12:44:58;;;;;;;0.88;0.70;;;37.30;36.50;;;;;;5074239;28;20188;-69
2022/05/21 12:48:02;;;;;;;0.75;0.75;;;38.00;36.30;;;;;;5074092;28;20178;-70
2022/05/21 12:50:28;;;;;;;0.57;0.55;;;38.10;37.30;;;;;;5070319;28;20299;-70
2022/05/21 12:52:55;;;;;;;0.70;0.70;;;39.80;36.20;;;;;;5073673;28;20698;-71
2022/05/21 12:55:32;;;;;;;1.38;0.75;;;41.40;33.90;;;;;;5073882;28;20254;-72
2022/05/21 12:58:20;;;;;;;0.90;0.75;;;41.90;33.50;;;;;;5073546;28;20194;-70
2022/05/21 13:00:54;;;;;;;1.00;0.50;;;43.50;31.80;;;;;;5073919;28;20169;-70
2022/05/21 13:03:22;;;;;;;1.35;0.55;;;43.80;31.70;;;;;;5073272;28;20244;-71
2022/05/21 13:06:14;;;;;;;0.70;0.70;;;44.10;30.50;;;;;;5073046;28;20527;-69
2022/05/21 13:08:41;;;;;;;0.73;0.73;;;43.40;30.80;;;;;;5071109;28;20206;-70
2022/05/21 13:11:22;;;;;;;0.60;0.60;;;42.60;32.80;;;;;;5073645;28;20174;-70
2022/05/21 13:14:10;;;;;;;0.63;0.63;;;43.50;31.20;;;;;;5073889;28;20623;-70
2022/05/21 13:16:52;;;;;;;2.45;0.65;;;44.70;30.90;;;;;;5073398;28;20183;-71
2022/05/21 13:19:54;;;;;;;0.60;0.57;;;44.80;30.00;;;;;;5073363;28;20186;-70
2022/05/21 13:22:30;;;;;;;0.50;0.50;;;43.80;30.40;;;;;;5073219;28;20174;-72
2022/05/21 13:25:04;;;;;;;0.60;0.60;;;43.20;31.90;;;;;;5073295;28;20231;-71
2022/05/21 13:27:49;;;;;;;0.85;0.85;;;43.10;31.90;;;;;;5073229;28;20223;-72
2022/05/21 13:30:18;;;;;;;1.00;0.60;;;43.80;30.60;;;;;;5073312;28;20166;-72
2022/05/21 13:32:51;;;;;;;1.27;0.57;;;44.70;30.10;;;;;;5072913;28;20203;-71
2022/05/21 13:35:26;;;;;;;1.35;0.57;;;45.40;29.90;;;;;;5073124;28;20206;-70